Time;durP1;ratioP1;P1;durP2;ratioP2;P2;SDS_P1;SDS_P2;PMS_P1;PMS_P2;Temp;Humidity;BMP_temperature;BMP_pressure;BME280_temperature;BME280_humidity;BME280_pressure;Samples;Min_cycle;Max_cycle;Signal;HPM_P1;HPM_P2
2020/12/12 00:00:49;;;;;;;128.10;31.48;;;;;;;;;;5035524;28;20048;-78
2020/12/12 00:03:17;;;;;;;130.73;33.40;;;;;;;;;;5053276;28;20056;-78
2020/12/12 00:05:43;;;;;;;143.25;33.67;;;;;;;;;;5034943;28;20505;-78
2020/12/12 00:08:12;;;;;;;139.05;34.35;;;;;;;;;;5035549;28;20052;-78
2020/12/12 00:10:41;;;;;;;125.35;33.05;;;;;;;;;;5035532;28;20044;-83
2020/12/12 00:13:08;;;;;;;143.20;36.08;;;;;;;;;;5037368;28;20056;-81
2020/12/12 00:15:35;;;;;;;153.25;34.92;;;;;;;;;;5031851;28;20564;-84
2020/12/12 00:18:02;;;;;;;150.98;36.30;;;;;;;;;;5051850;28;20107;-83
2020/12/12 00:20:34;;;;;;;133.48;34.33;;;;;;;;;;5049444;28;20085;-84
2020/12/12 00:23:01;;;;;;;144.05;35.80;;;;;;;;;;5034995;28;20077;-83
2020/12/12 00:25:28;;;;;;;170.57;36.47;;;;;;;;;;5037305;28;20095;-83
2020/12/12 00:27:54;;;;;;;134.32;33.45;;;;;;;;;;5054011;28;20056;-84
2020/12/12 00:30:27;;;;;;;131.63;33.72;;;;;;;;;;5045209;28;20057;-83
2020/12/12 00:32:54;;;;;;;151.95;34.78;;;;;;;;;;5054708;28;20076;-84
2020/12/12 00:35:21;;;;;;;145.80;34.92;;;;;;;;;;5033854;28;20081;-81
2020/12/12 00:37:50;;;;;;;146.05;37.40;;;;;;;;;;5049913;28;20114;-81
2020/12/12 00:40:17;;;;;;;157.95;37.33;;;;;;;;;;5048623;28;20486;-81
2020/12/12 00:42:43;;;;;;;140.93;36.00;;;;;;;;;;5055449;28;20556;-82
2020/12/12 00:45:10;;;;;;;155.20;38.00;;;;;;;;;;5055566;28;20041;-81
2020/12/12 00:47:38;;;;;;;143.15;37.08;;;;;;;;;;5054314;28;20069;-84
2020/12/12 00:50:04;;;;;;;167.15;37.85;;;;;;;;;;5055233;28;20095;-84
2020/12/12 00:52:32;;;;;;;165.70;37.70;;;;;;;;;;5054638;28;20490;-83
2020/12/12 00:54:58;;;;;;;154.40;38.42;;;;;;;;;;5052170;28;20083;-83
2020/12/12 00:57:25;;;;;;;160.63;38.70;;;;;;;;;;5052171;28;20080;-83
2020/12/12 00:59:51;;;;;;;168.73;39.45;;;;;;;;;;5053649;28;20409;-83
2020/12/12 01:02:18;;;;;;;154.80;35.08;;;;;;;;;;5052700;28;20455;-84
2020/12/12 01:04:47;;;;;;;160.95;37.05;;;;;;;;;;5055042;28;20437;-84
2020/12/12 01:07:14;;;;;;;159.68;37.05;;;;;;;;;;5054551;28;20052;-84
2020/12/12 01:09:41;;;;;;;163.40;37.60;;;;;;;;;;5037072;28;20076;-83
2020/12/12 01:12:09;;;;;;;171.73;39.47;;;;;;;;;;5053186;28;20550;-83
2020/12/12 01:14:38;;;;;;;159.23;36.60;;;;;;;;;;5053519;28;20565;-83
2020/12/12 01:17:05;;;;;;;161.90;38.15;;;;;;;;;;5038829;28;20140;-83
2020/12/12 01:19:39;;;;;;;152.18;36.78;;;;;;;;;;5036961;28;20057;-83
2020/12/12 01:22:07;;;;;;;159.98;37.35;;;;;;;;;;5052063;28;20052;-83
2020/12/12 01:24:34;;;;;;;163.85;38.42;;;;;;;;;;5053824;28;20045;-84
2020/12/12 01:27:00;;;;;;;167.65;39.33;;;;;;;;;;5037057;28;20053;-84
2020/12/12 01:29:27;;;;;;;165.73;37.58;;;;;;;;;;5036575;28;20083;-84
2020/12/12 01:31:54;;;;;;;143.45;37.78;;;;;;;;;;5053956;28;20075;-84
2020/12/12 01:34:21;;;;;;;162.43;38.17;;;;;;;;;;5052855;28;20044;-84
2020/12/12 01:36:48;;;;;;;161.63;38.60;;;;;;;;;;5054467;28;20450;-84
2020/12/12 01:39:15;;;;;;;155.90;40.78;;;;;;;;;;5037882;28;20057;-84
2020/12/12 01:41:41;;;;;;;182.88;38.55;;;;;;;;;;5036817;28;20045;-84
2020/12/12 01:44:08;;;;;;;166.05;39.17;;;;;;;;;;5046258;28;20045;-84
2020/12/12 01:46:35;;;;;;;162.43;38.05;;;;;;;;;;5037159;28;20083;-83
2020/12/12 01:49:06;;;;;;;179.50;42.22;;;;;;;;;;5037053;28;20049;-83
2020/12/12 01:51:34;;;;;;;182.70;41.28;;;;;;;;;;5036545;28;20049;-83
2020/12/12 01:54:01;;;;;;;166.02;39.80;;;;;;;;;;5053070;28;20079;-84
2020/12/12 01:56:27;;;;;;;188.50;40.65;;;;;;;;;;5053055;28;20045;-84
2020/12/12 01:58:54;;;;;;;172.10;38.85;;;;;;;;;;5036555;28;20095;-84
2020/12/12 02:01:22;;;;;;;182.57;41.78;;;;;;;;;;5032434;28;20470;-84
2020/12/12 02:03:50;;;;;;;176.95;42.65;;;;;;;;;;5052857;28;20056;-83
2020/12/12 02:06:18;;;;;;;183.88;39.47;;;;;;;;;;5045388;28;20490;-83
2020/12/12 02:08:45;;;;;;;187.98;39.45;;;;;;;;;;5053004;28;20045;-83
2020/12/12 02:11:12;;;;;;;179.55;39.90;;;;;;;;;;5043598;28;20714;-83
2020/12/12 02:13:48;;;;;;;166.93;37.15;;;;;;;;;;5035046;28;20129;-83
2020/12/12 02:16:17;;;;;;;182.05;41.10;;;;;;;;;;5048746;28;20102;-84
2020/12/12 02:18:45;;;;;;;186.48;40.90;;;;;;;;;;5039018;28;20053;-83
2020/12/12 02:21:21;;;;;;;192.70;42.15;;;;;;;;;;5057232;28;20140;-84
2020/12/12 02:23:48;;;;;;;174.73;41.60;;;;;;;;;;5024739;28;20049;-84
2020/12/12 02:26:15;;;;;;;184.93;43.92;;;;;;;;;;5057343;28;20107;-84
2020/12/12 02:28:51;;;;;;;191.25;41.20;;;;;;;;;;5038405;28;20056;-83
2020/12/12 02:31:17;;;;;;;183.30;43.97;;;;;;;;;;5036061;28;20132;-84
2020/12/12 02:33:44;;;;;;;194.48;41.38;;;;;;;;;;5055386;28;20052;-84
2020/12/12 02:36:11;;;;;;;170.30;39.75;;;;;;;;;;5040405;28;20049;-83
2020/12/12 02:38:42;;;;;;;191.68;43.05;;;;;;;;;;5058223;28;20446;-84
2020/12/12 02:41:09;;;;;;;188.05;42.97;;;;;;;;;;5039524;28;20052;-83
2020/12/12 02:43:36;;;;;;;177.82;38.63;;;;;;;;;;5040560;28;20060;-84
2020/12/12 02:46:07;;;;;;;179.18;42.65;;;;;;;;;;5040435;28;20061;-83
2020/12/12 02:48:33;;;;;;;193.68;44.58;;;;;;;;;;5040275;28;20044;-84
2020/12/12 02:51:00;;;;;;;163.88;39.42;;;;;;;;;;5056210;28;20194;-83
2020/12/12 02:53:27;;;;;;;189.43;40.70;;;;;;;;;;5054757;28;20045;-84
2020/12/12 02:55:54;;;;;;;178.55;41.45;;;;;;;;;;5056716;28;20076;-84
2020/12/12 02:58:20;;;;;;;180.70;44.38;;;;;;;;;;5054554;28;20052;-84
2020/12/12 03:01:06;;;;;;;182.93;41.97;;;;;;;;;;5056075;28;20049;-84
2020/12/12 03:03:33;;;;;;;174.90;40.25;;;;;;;;;;5056912;28;20060;-84
2020/12/12 03:06:00;;;;;;;177.10;40.03;;;;;;;;;;5056832;28;20129;-84
2020/12/12 03:08:27;;;;;;;169.27;41.10;;;;;;;;;;5057758;28;20136;-84
2020/12/12 03:10:54;;;;;;;178.93;39.22;;;;;;;;;;5055842;28;20053;-85
2020/12/12 03:13:21;;;;;;;171.65;39.38;;;;;;;;;;5037039;28;20084;-85
2020/12/12 03:15:48;;;;;;;174.07;42.10;;;;;;;;;;5056665;28;20075;-82
2020/12/12 03:18:18;;;;;;;179.48;40.95;;;;;;;;;;5040746;28;20130;-84
2020/12/12 03:20:45;;;;;;;176.73;42.17;;;;;;;;;;5039961;28;20732;-85
2020/12/12 03:23:12;;;;;;;191.90;42.75;;;;;;;;;;5039801;28;20040;-85
2020/12/12 03:25:43;;;;;;;172.50;39.90;;;;;;;;;;5040153;28;20044;-85
2020/12/12 03:28:09;;;;;;;189.15;43.35;;;;;;;;;;5039778;28;20041;-85
2020/12/12 03:30:37;;;;;;;184.25;42.38;;;;;;;;;;5055680;28;20095;-85
2020/12/12 03:33:04;;;;;;;174.65;40.70;;;;;;;;;;5048392;28;20053;-85
2020/12/12 03:35:32;;;;;;;160.40;41.80;;;;;;;;;;5057328;28;20477;-86
2020/12/12 03:37:59;;;;;;;194.75;44.72;;;;;;;;;;5040636;28;20119;-85
2020/12/12 03:40:32;;;;;;;171.07;41.75;;;;;;;;;;5040075;28;20131;-85
2020/12/12 03:42:59;;;;;;;179.02;41.10;;;;;;;;;;5057662;28;20053;-84
2020/12/12 03:45:26;;;;;;;182.10;41.08;;;;;;;;;;5057075;28;20051;-84
2020/12/12 03:47:52;;;;;;;176.20;42.45;;;;;;;;;;5039546;28;20554;-84
2020/12/12 03:50:27;;;;;;;186.98;43.10;;;;;;;;;;5056573;28;20045;-84
2020/12/12 03:52:55;;;;;;;189.82;42.65;;;;;;;;;;5056680;28;20780;-83
2020/12/12 03:55:23;;;;;;;179.30;41.83;;;;;;;;;;5038567;28;20503;-84
2020/12/12 03:57:49;;;;;;;187.20;44.03;;;;;;;;;;5036436;28;20080;-84
2020/12/12 04:00:16;;;;;;;185.00;41.53;;;;;;;;;;5034036;28;20050;-82
2020/12/12 04:02:47;;;;;;;175.98;40.88;;;;;;;;;;5036115;28;20045;-85
2020/12/12 04:05:14;;;;;;;198.55;44.17;;;;;;;;;;5034826;28;20076;-83
2020/12/12 04:07:43;;;;;;;198.07;42.38;;;;;;;;;;5018524;28;20046;-84
2020/12/12 04:10:10;;;;;;;198.88;42.97;;;;;;;;;;5038082;28;20127;-84
2020/12/12 04:12:38;;;;;;;195.60;46.42;;;;;;;;;;5036069;28;20049;-83
2020/12/12 04:15:11;;;;;;;180.23;43.08;;;;;;;;;;5034318;28;20156;-80
2020/12/12 04:17:37;;;;;;;207.75;44.40;;;;;;;;;;5034467;28;20103;-81
2020/12/12 04:20:04;;;;;;;183.88;43.97;;;;;;;;;;5034254;28;20120;-81
2020/12/12 04:22:33;;;;;;;168.30;40.10;;;;;;;;;;5033518;28;20115;-80
2020/12/12 04:25:00;;;;;;;189.00;46.03;;;;;;;;;;5034137;28;20045;-81
2020/12/12 04:27:33;;;;;;;187.63;45.47;;;;;;;;;;5027161;28;20042;-81
2020/12/12 04:30:01;;;;;;;202.95;42.30;;;;;;;;;;5035630;28;20049;-81
2020/12/12 04:32:27;;;;;;;203.50;48.63;;;;;;;;;;5033874;28;20463;-81
2020/12/12 04:34:55;;;;;;;183.23;47.53;;;;;;;;;;5035903;28;20045;-82
2020/12/12 04:37:22;;;;;;;184.27;45.80;;;;;;;;;;5035305;28;20095;-82
2020/12/12 04:39:48;;;;;;;200.20;48.47;;;;;;;;;;5034405;28;20139;-82
2020/12/12 04:42:16;;;;;;;174.57;45.60;;;;;;;;;;5032138;28;20068;-82
2020/12/12 04:44:43;;;;;;;188.48;45.85;;;;;;;;;;5034776;28;20623;-82
2020/12/12 04:47:10;;;;;;;184.40;43.63;;;;;;;;;;5034804;28;20124;-84
2020/12/12 04:49:38;;;;;;;199.10;46.90;;;;;;;;;;5035866;28;20056;-84
2020/12/12 04:52:05;;;;;;;207.32;49.20;;;;;;;;;;5033614;28;20060;-84
2020/12/12 04:54:33;;;;;;;182.75;41.85;;;;;;;;;;5039287;28;20569;-84
2020/12/12 04:57:06;;;;;;;213.10;50.33;;;;;;;;;;5052261;28;20472;-84
2020/12/12 04:59:36;;;;;;;208.23;49.28;;;;;;;;;;5038060;28;20140;-85
2020/12/12 05:02:04;;;;;;;173.10;46.85;;;;;;;;;;5054732;28;20079;-85
2020/12/12 05:04:32;;;;;;;187.40;45.78;;;;;;;;;;5038208;28;20098;-85
2020/12/12 05:06:59;;;;;;;186.50;49.00;;;;;;;;;;5055811;28;20045;-85
2020/12/12 05:09:28;;;;;;;199.02;49.15;;;;;;;;;;5055568;28;20053;-85
2020/12/12 05:11:55;;;;;;;183.02;48.75;;;;;;;;;;5035752;28;20079;-85
2020/12/12 05:14:22;;;;;;;194.82;49.58;;;;;;;;;;5038103;28;20711;-85
2020/12/12 05:16:54;;;;;;;195.00;48.67;;;;;;;;;;5037212;28;20080;-86
2020/12/12 05:19:22;;;;;;;199.40;48.45;;;;;;;;;;5054471;28;20052;-85
2020/12/12 05:21:49;;;;;;;193.13;48.47;;;;;;;;;;5054121;28;20076;-85
2020/12/12 05:24:16;;;;;;;200.20;51.00;;;;;;;;;;5038549;28;20067;-86
2020/12/12 05:26:43;;;;;;;177.48;45.58;;;;;;;;;;5040091;28;20075;-86
2020/12/12 05:29:12;;;;;;;178.07;46.08;;;;;;;;;;5057842;28;20056;-86
2020/12/12 05:31:39;;;;;;;192.13;51.95;;;;;;;;;;5056684;28;20049;-86
2020/12/12 05:34:16;;;;;;;175.98;48.45;;;;;;;;;;5055074;28;20080;-85
2020/12/12 05:36:44;;;;;;;159.07;44.15;;;;;;;;;;5038792;28;20053;-86
2020/12/12 05:39:12;;;;;;;167.20;44.03;;;;;;;;;;5055169;28;20064;-85
2020/12/12 05:41:39;;;;;;;184.70;48.58;;;;;;;;;;5055134;28;20053;-85
2020/12/12 05:44:06;;;;;;;170.35;46.40;;;;;;;;;;5055783;28;20079;-86
2020/12/12 05:46:33;;;;;;;166.50;48.20;;;;;;;;;;5056411;28;20077;-86
2020/12/12 05:49:01;;;;;;;172.40;49.03;;;;;;;;;;5037866;28;20045;-86
2020/12/12 05:51:28;;;;;;;148.07;44.95;;;;;;;;;;5033147;28;20128;-86
2020/12/12 05:53:56;;;;;;;183.35;47.47;;;;;;;;;;5038417;28;20092;-86
2020/12/12 05:56:23;;;;;;;173.80;48.78;;;;;;;;;;5034918;28;20342;-86
2020/12/12 05:58:51;;;;;;;178.43;48.80;;;;;;;;;;5036906;28;20547;-86
2020/12/12 06:01:31;;;;;;;156.60;48.03;;;;;;;;;;5035565;28;20057;-87
2020/12/12 06:04:04;;;;;;;165.38;47.75;;;;;;;;;;5049122;28;20048;-86
2020/12/12 06:06:36;;;;;;;165.77;50.13;;;;;;;;;;5050547;28;20042;-86
2020/12/12 06:09:07;;;;;;;169.85;47.65;;;;;;;;;;5035538;28;20252;-87
2020/12/12 06:11:46;;;;;;;161.90;47.22;;;;;;;;;;5028932;28;20065;-86
2020/12/12 06:14:13;;;;;;;162.45;45.47;;;;;;;;;;5036731;28;20061;-87
2020/12/12 06:16:40;;;;;;;158.88;46.22;;;;;;;;;;5035706;28;20076;-86
2020/12/12 06:19:14;;;;;;;170.15;46.25;;;;;;;;;;5037308;28;20781;-87
2020/12/12 06:21:42;;;;;;;158.88;46.03;;;;;;;;;;5035521;28;20049;-86
2020/12/12 06:24:10;;;;;;;168.68;47.28;;;;;;;;;;5036708;28;20076;-86
2020/12/12 06:26:39;;;;;;;164.73;50.10;;;;;;;;;;5035127;28;20128;-87
2020/12/12 06:29:09;;;;;;;160.23;47.95;;;;;;;;;;5051490;28;20073;-86
2020/12/12 06:31:38;;;;;;;147.85;44.05;;;;;;;;;;5035602;28;20047;-86
2020/12/12 06:34:05;;;;;;;164.55;51.88;;;;;;;;;;5035639;28;20049;-86
2020/12/12 06:36:34;;;;;;;141.55;46.03;;;;;;;;;;5034846;28;20045;-86
2020/12/12 06:39:16;;;;;;;145.93;46.67;;;;;;;;;;5034943;28;20049;-87
2020/12/12 06:41:45;;;;;;;135.20;40.90;;;;;;;;;;5035687;28;20113;-86
2020/12/12 06:44:12;;;;;;;148.32;45.83;;;;;;;;;;5035269;28;20092;-86
2020/12/12 06:46:58;;;;;;;137.48;44.47;;;;;;;;;;5118635;23;20080;-86
2020/12/12 06:49:26;;;;;;;150.10;47.67;;;;;;;;;;5055643;28;20764;-85
2020/12/12 06:51:53;;;;;;;144.10;45.40;;;;;;;;;;5052699;28;20398;-85
2020/12/12 06:54:20;;;;;;;150.40;46.33;;;;;;;;;;5053670;28;20060;-86
2020/12/12 06:56:47;;;;;;;145.32;43.05;;;;;;;;;;5053161;28;20073;-86
2020/12/12 06:59:37;;;;;;;144.60;45.15;;;;;;;;;;5050740;28;20087;-83
2020/12/12 07:02:08;;;;;;;134.30;44.97;;;;;;;;;;5053116;28;20133;-86
2020/12/12 07:04:38;;;;;;;143.65;44.10;;;;;;;;;;5055957;28;20055;-86
2020/12/12 07:07:09;;;;;;;143.10;44.92;;;;;;;;;;5060621;28;20493;-86
2020/12/12 07:09:40;;;;;;;138.52;45.55;;;;;;;;;;5057890;28;20080;-86
2020/12/12 07:12:08;;;;;;;139.00;47.00;;;;;;;;;;5057676;28;20124;-85
2020/12/12 07:14:37;;;;;;;140.30;42.50;;;;;;;;;;5058076;28;20131;-87
2020/12/12 07:17:04;;;;;;;134.63;44.63;;;;;;;;;;5042467;28;20076;-88
2020/12/12 07:19:32;;;;;;;143.07;44.90;;;;;;;;;;5044931;28;20049;-86
2020/12/12 07:21:59;;;;;;;132.23;43.30;;;;;;;;;;5065336;28;20107;-86
2020/12/12 07:24:26;;;;;;;145.02;43.97;;;;;;;;;;5063927;28;20155;-87
2020/12/12 07:26:55;;;;;;;128.20;43.63;;;;;;;;;;5041022;28;20055;-86
2020/12/12 07:29:23;;;;;;;142.02;46.13;;;;;;;;;;5057383;28;20091;-87
2020/12/12 07:31:52;;;;;;;125.63;42.10;;;;;;;;;;5058073;28;20045;-85
2020/12/12 07:34:20;;;;;;;132.82;44.35;;;;;;;;;;5057099;28;20045;-85
2020/12/12 07:37:02;;;;;;;135.88;45.75;;;;;;;;;;5057177;28;20128;-85
2020/12/12 07:39:34;;;;;;;128.30;44.15;;;;;;;;;;5050022;28;20049;-85
2020/12/12 07:42:01;;;;;;;139.55;46.22;;;;;;;;;;5037845;28;20055;-85
2020/12/12 07:44:30;;;;;;;133.30;45.65;;;;;;;;;;5055589;28;20612;-85
2020/12/12 07:46:58;;;;;;;139.80;46.33;;;;;;;;;;5054609;28;20486;-85
2020/12/12 07:49:27;;;;;;;122.97;44.15;;;;;;;;;;5055048;28;20045;-85
2020/12/12 07:52:13;;;;;;;133.60;45.58;;;;;;;;;;5041569;28;20486;-85
2020/12/12 07:54:45;;;;;;;128.82;42.85;;;;;;;;;;5056411;28;20128;-85
2020/12/12 07:57:12;;;;;;;123.07;44.70;;;;;;;;;;5054703;28;20079;-85
2020/12/12 07:59:40;;;;;;;128.05;46.22;;;;;;;;;;5056082;28;20072;-85
2020/12/12 08:02:08;;;;;;;131.30;43.88;;;;;;;;;;5053770;28;20465;-84
2020/12/12 08:04:36;;;;;;;124.82;43.53;;;;;;;;;;5041536;28;20698;-84
2020/12/12 08:07:10;;;;;;;128.93;44.35;;;;;;;;;;5049885;28;20073;-85
2020/12/12 08:09:36;;;;;;;127.10;45.38;;;;;;;;;;5038166;28;20084;-85
2020/12/12 08:12:04;;;;;;;137.52;43.00;;;;;;;;;;5055796;28;20156;-84
2020/12/12 08:14:40;;;;;;;130.82;44.72;;;;;;;;;;5034360;28;20053;-85
2020/12/12 08:17:10;;;;;;;130.43;43.80;;;;;;;;;;5054747;28;20048;-84
2020/12/12 08:19:45;;;;;;;121.03;43.20;;;;;;;;;;5046824;28;20412;-84
2020/12/12 08:22:15;;;;;;;125.35;43.83;;;;;;;;;;5052676;28;20088;-84
2020/12/12 08:24:44;;;;;;;131.82;46.22;;;;;;;;;;5054631;28;20108;-83
2020/12/12 08:27:12;;;;;;;126.03;44.15;;;;;;;;;;5055538;28;20059;-83
2020/12/12 08:29:39;;;;;;;128.20;44.72;;;;;;;;;;5054517;28;20065;-83
2020/12/12 08:32:06;;;;;;;127.28;43.13;;;;;;;;;;5053022;28;20049;-83
2020/12/12 08:34:33;;;;;;;123.22;43.05;;;;;;;;;;5052595;28;20048;-83
2020/12/12 08:37:02;;;;;;;135.20;45.10;;;;;;;;;;5055008;28;20052;-83
2020/12/12 08:39:30;;;;;;;139.07;47.97;;;;;;;;;;5037269;28;20102;-83
2020/12/12 08:41:57;;;;;;;137.00;45.35;;;;;;;;;;5050703;28;20274;-81
2020/12/12 08:44:24;;;;;;;120.43;42.45;;;;;;;;;;5051759;28;20045;-84
2020/12/12 08:46:52;;;;;;;122.55;39.95;;;;;;;;;;5049655;28;20048;-79
2020/12/12 08:49:23;;;;;;;112.75;38.28;;;;;;;;;;5047025;28;20041;-78
2020/12/12 08:51:52;;;;;;;129.38;42.88;;;;;;;;;;5033655;28;20073;-79
2020/12/12 08:54:19;;;;;;;121.50;39.75;;;;;;;;;;5048886;28;20504;-77
2020/12/12 08:56:46;;;;;;;124.35;44.17;;;;;;;;;;5049930;28;20052;-79
2020/12/12 08:59:19;;;;;;;135.73;42.40;;;;;;;;;;5050746;28;20049;-79
2020/12/12 09:01:47;;;;;;;126.15;41.80;;;;;;;;;;5049157;28;20140;-77
2020/12/12 09:04:14;;;;;;;118.82;42.58;;;;;;;;;;5046981;28;20045;-77
2020/12/12 09:06:43;;;;;;;125.03;40.55;;;;;;;;;;5049331;28;20626;-78
2020/12/12 09:09:31;;;;;;;119.63;41.33;;;;;;;;;;5050043;28;20072;-78
2020/12/12 09:11:57;;;;;;;130.45;41.38;;;;;;;;;;5048572;28;20045;-77
2020/12/12 09:14:25;;;;;;;126.70;41.88;;;;;;;;;;5047883;28;20084;-80
2020/12/12 09:17:02;;;;;;;135.05;41.63;;;;;;;;;;5049406;28;20694;-78
2020/12/12 09:19:29;;;;;;;121.30;40.83;;;;;;;;;;5048478;28;20085;-78
2020/12/12 09:21:57;;;;;;;117.13;38.30;;;;;;;;;;5035160;28;20089;-77
2020/12/12 09:24:24;;;;;;;115.15;37.53;;;;;;;;;;5029412;28;20157;-80
2020/12/12 09:26:56;;;;;;;118.80;40.92;;;;;;;;;;5038599;28;20075;-85
2020/12/12 09:29:23;;;;;;;114.47;39.17;;;;;;;;;;5043032;28;20076;-83
2020/12/12 09:31:51;;;;;;;111.57;39.13;;;;;;;;;;5051662;28;20052;-84
2020/12/12 09:34:18;;;;;;;123.63;40.25;;;;;;;;;;5038167;28;20049;-83
2020/12/12 09:36:50;;;;;;;114.38;39.20;;;;;;;;;;5052342;28;20501;-83
2020/12/12 09:39:19;;;;;;;106.22;38.03;;;;;;;;;;5044113;28;20049;-81
2020/12/12 09:41:46;;;;;;;127.70;40.20;;;;;;;;;;5045496;28;20096;-81
2020/12/12 09:44:17;;;;;;;113.90;37.72;;;;;;;;;;5034861;28;20106;-82
2020/12/12 09:47:10;;;;;;;157.02;41.15;;;;;;;;;;5022843;28;20377;-82
2020/12/12 09:49:42;;;;;;;116.88;36.92;;;;;;;;;;5051208;28;20501;-88
2020/12/12 09:52:09;;;;;;;117.65;38.15;;;;;;;;;;5055997;28;20564;-87
2020/12/12 09:57:25;;;;;;;113.80;40.75;;;;;;;;;;5148678;27;20410;-87
2020/12/12 09:59:58;;;;;;;111.70;39.80;;;;;;;;;;5101985;28;20048;-87
2020/12/12 10:02:30;;;;;;;117.53;39.35;;;;;;;;;;5081089;28;20052;-89
2020/12/12 10:05:04;;;;;;;112.32;38.55;;;;;;;;;;5095190;28;20550;-90
2020/12/12 10:07:34;;;;;;;116.63;37.95;;;;;;;;;;5096321;28;20045;-89
2020/12/12 10:10:03;;;;;;;112.50;38.88;;;;;;;;;;5095467;28;20076;-89
2020/12/12 10:12:31;;;;;;;100.82;35.47;;;;;;;;;;5095868;28;20393;-90
2020/12/12 10:15:01;;;;;;;105.80;36.63;;;;;;;;;;5095263;28;20107;-90
2020/12/12 10:17:32;;;;;;;107.32;37.38;;;;;;;;;;5094518;28;20050;-89
2020/12/12 10:20:03;;;;;;;100.05;35.97;;;;;;;;;;5095203;28;20378;-90
2020/12/12 10:22:30;;;;;;;108.30;35.13;;;;;;;;;;5095016;28;20436;-90
2020/12/12 10:25:04;;;;;;;103.63;36.92;;;;;;;;;;5095912;28;20052;-90
2020/12/12 10:27:32;;;;;;;97.80;35.05;;;;;;;;;;5095536;28;20048;-90
2020/12/12 10:30:02;;;;;;;105.35;35.38;;;;;;;;;;5094393;28;20139;-90
2020/12/12 10:32:33;;;;;;;103.93;33.45;;;;;;;;;;5095065;28;20048;-89
2020/12/12 10:35:01;;;;;;;102.15;34.97;;;;;;;;;;5095315;28;20044;-90
2020/12/12 10:37:28;;;;;;;91.43;33.10;;;;;;;;;;5095064;28;20040;-90
2020/12/12 10:42:31;;;;;;;80.85;29.27;;;;;;;;;;5087978;28;20040;-89
2020/12/12 10:44:59;;;;;;;83.07;29.15;;;;;;;;;;5096081;28;20036;-90
2020/12/12 10:47:33;;;;;;;100.93;31.52;;;;;;;;;;5095542;28;20052;-90
2020/12/12 10:50:07;;;;;;;92.50;30.42;;;;;;;;;;5095298;28;20051;-90
2020/12/12 10:52:41;;;;;;;82.68;31.15;;;;;;;;;;5096208;28;20048;-90
2020/12/12 10:55:10;;;;;;;79.60;30.48;;;;;;;;;;5094714;28;20041;-89
2020/12/12 10:57:39;;;;;;;86.40;29.70;;;;;;;;;;5095001;28;20051;-88
2020/12/12 11:00:10;;;;;;;91.20;30.70;;;;;;;;;;5095525;28;20045;-90
2020/12/12 11:02:37;;;;;;;81.90;30.65;;;;;;;;;;5096155;28;20048;-88
2020/12/12 11:05:05;;;;;;;78.97;28.55;;;;;;;;;;5094545;28;20111;-89
2020/12/12 11:07:48;;;;;;;77.65;28.23;;;;;;;;;;5085189;28;20098;-89
2020/12/12 11:10:18;;;;;;;82.22;28.67;;;;;;;;;;5081094;28;20044;-88
2020/12/12 11:12:46;;;;;;;86.78;30.48;;;;;;;;;;5081299;28;20568;-89
2020/12/12 11:15:16;;;;;;;79.38;29.77;;;;;;;;;;5061251;28;20136;-90
2020/12/12 11:17:48;;;;;;;81.63;28.23;;;;;;;;;;5080789;28;20250;-90
2020/12/12 11:20:16;;;;;;;74.25;28.00;;;;;;;;;;5082207;28;20453;-91
2020/12/12 11:22:45;;;;;;;83.88;27.73;;;;;;;;;;5082096;28;20045;-87
2020/12/12 11:25:15;;;;;;;70.72;25.17;;;;;;;;;;5080376;28;20052;-85
2020/12/12 11:27:46;;;;;;;71.93;25.98;;;;;;;;;;5079780;28;20516;-85
2020/12/12 11:30:18;;;;;;;79.13;27.25;;;;;;;;;;5079198;28;20817;-85
2020/12/12 11:32:45;;;;;;;71.60;26.20;;;;;;;;;;5079351;28;20052;-86
2020/12/12 11:35:19;;;;;;;62.63;25.98;;;;;;;;;;5080161;28;20045;-87
2020/12/12 11:38:11;;;;;;;77.15;28.27;;;;;;;;;;5079024;28;20041;-88
2020/12/12 11:40:58;;;;;;;70.18;27.77;;;;;;;;;;5068588;28;20048;-88
2020/12/12 11:48:53;;;;;;;76.78;25.23;;;;;;;;;;5080032;28;20048;-88
2020/12/12 11:51:25;;;;;;;67.75;25.60;;;;;;;;;;5078608;28;20056;-88
2020/12/12 11:53:53;;;;;;;74.53;26.85;;;;;;;;;;5078359;28;20098;-89
2020/12/12 11:56:27;;;;;;;79.28;27.48;;;;;;;;;;5075585;28;20067;-88
2020/12/12 11:58:59;;;;;;;73.10;27.13;;;;;;;;;;5078663;28;20048;-88
2020/12/12 12:01:33;;;;;;;86.95;29.73;;;;;;;;;;5078520;28;20068;-88
2020/12/12 12:04:00;;;;;;;84.53;29.88;;;;;;;;;;5077296;28;20053;-88
2020/12/12 12:06:30;;;;;;;90.15;29.48;;;;;;;;;;5077145;28;20044;-88
2020/12/12 12:11:33;;;;;;;74.72;27.48;;;;;;;;;;5079498;28;20507;-88
2020/12/12 12:14:06;;;;;;;72.15;25.60;;;;;;;;;;5079047;28;20485;-87
2020/12/12 12:16:42;;;;;;;77.90;26.42;;;;;;;;;;5078724;28;20044;-88
2020/12/12 12:19:17;;;;;;;79.25;28.20;;;;;;;;;;5077098;28;20040;-88
2020/12/12 12:21:50;;;;;;;81.28;28.08;;;;;;;;;;5074178;28;20044;-89
2020/12/12 12:24:25;;;;;;;73.78;25.40;;;;;;;;;;5071219;28;20052;-88
2020/12/12 12:26:55;;;;;;;77.82;26.40;;;;;;;;;;5078629;28;20174;-89
2020/12/12 12:29:22;;;;;;;81.70;25.23;;;;;;;;;;5078974;28;20117;-89
2020/12/12 12:31:53;;;;;;;75.55;27.02;;;;;;;;;;5078153;28;20272;-89
2020/12/12 12:34:46;;;;;;;69.10;24.65;;;;;;;;;;5079440;28;20072;-89
2020/12/12 12:37:16;;;;;;;72.78;24.75;;;;;;;;;;5079173;28;20083;-91
2020/12/12 12:39:46;;;;;;;78.10;25.55;;;;;;;;;;5079869;28;20048;-90
2020/12/12 12:42:14;;;;;;;78.07;26.15;;;;;;;;;;5079067;28;20059;-91
2020/12/12 12:44:44;;;;;;;76.35;26.13;;;;;;;;;;5062747;28;20260;-90
2020/12/12 12:47:15;;;;;;;66.47;23.58;;;;;;;;;;5079186;28;20059;-88
2020/12/12 12:49:43;;;;;;;73.35;25.70;;;;;;;;;;5078420;28;20052;-88
2020/12/12 12:52:11;;;;;;;73.13;24.25;;;;;;;;;;5078356;28;20049;-89
2020/12/12 12:54:42;;;;;;;72.57;24.50;;;;;;;;;;5078571;28;20104;-88
2020/12/12 12:57:15;;;;;;;73.75;25.58;;;;;;;;;;5078600;28;20109;-88
2020/12/12 12:59:45;;;;;;;72.25;24.67;;;;;;;;;;5078296;28;20044;-88
2020/12/12 13:02:19;;;;;;;66.40;23.35;;;;;;;;;;5079794;28;20041;-89
2020/12/12 13:04:46;;;;;;;66.80;25.35;;;;;;;;;;5073611;28;20063;-89
2020/12/12 13:07:17;;;;;;;64.93;22.67;;;;;;;;;;5078737;28;20787;-88
2020/12/12 13:09:49;;;;;;;64.80;23.55;;;;;;;;;;5080931;28;20041;-89
2020/12/12 13:12:17;;;;;;;87.57;24.67;;;;;;;;;;5078273;28;20140;-87
2020/12/12 13:14:56;;;;;;;71.72;24.25;;;;;;;;;;5075943;28;20059;-90
2020/12/12 13:17:24;;;;;;;74.32;25.52;;;;;;;;;;5078042;28;20044;-90
2020/12/12 13:20:16;;;;;;;70.97;23.75;;;;;;;;;;5080822;28;20131;-90
2020/12/12 13:22:57;;;;;;;91.65;32.15;;;;;;;;;;5075136;28;20131;-91
2020/12/12 13:25:41;;;;;;;77.30;25.20;;;;;;;;;;5081113;28;20076;-91
2020/12/12 13:31:08;;;;;;;71.30;23.83;;;;;;;;;;5075953;28;20064;-91
2020/12/12 13:33:44;;;;;;;61.55;23.50;;;;;;;;;;5083916;28;20110;-91
2020/12/12 13:36:21;;;;;;;66.47;24.95;;;;;;;;;;5077133;28;20097;-88
2020/12/12 13:38:55;;;;;;;69.00;24.20;;;;;;;;;;5076169;28;20119;-89
2020/12/12 13:41:26;;;;;;;71.53;24.55;;;;;;;;;;5076701;28;20089;-88
2020/12/12 13:43:57;;;;;;;70.25;23.70;;;;;;;;;;5076881;28;20460;-88
2020/12/12 13:46:24;;;;;;;71.10;22.80;;;;;;;;;;5072938;28;20128;-88
2020/12/12 13:48:51;;;;;;;72.45;23.95;;;;;;;;;;5076118;28;20049;-90
2020/12/12 13:51:23;;;;;;;74.43;23.33;;;;;;;;;;5076968;28;20078;-90
2020/12/12 13:53:50;;;;;;;73.47;22.48;;;;;;;;;;5075145;28;20470;-89
2020/12/12 13:56:17;;;;;;;70.93;24.17;;;;;;;;;;5077356;28;20036;-93
2020/12/12 13:58:49;;;;;;;63.90;21.10;;;;;;;;;;5086850;28;20111;-90
2020/12/12 14:01:28;;;;;;;68.35;22.17;;;;;;;;;;5089425;28;20076;-92
2020/12/12 14:04:19;;;;;;;66.18;25.13;;;;;;;;;;5080981;28;20052;-93
2020/12/12 14:07:26;;;;;;;65.35;22.73;;;;;;;;;;5081101;28;20053;-93
2020/12/12 14:25:33;;;;;;;67.45;24.23;;;;;;;;;;5082378;28;20107;-93
2020/12/12 14:31:09;;;;;;;64.22;22.65;;;;;;;;;;5082136;28;20082;-93
2020/12/12 14:33:43;;;;;;;56.55;20.23;;;;;;;;;;5080999;28;20067;-93
2020/12/12 14:36:14;;;;;;;61.05;21.80;;;;;;;;;;5081063;28;20463;-93
2020/12/12 14:38:44;;;;;;;64.80;23.30;;;;;;;;;;5081864;28;20080;-92
2020/12/12 14:44:40;;;;;;;67.90;22.92;;;;;;;;;;5086192;28;20158;-93
2020/12/12 14:47:16;;;;;;;68.03;22.80;;;;;;;;;;5085243;28;20119;-94
2020/12/12 14:53:18;;;;;;;62.90;22.50;;;;;;;;;;5086127;28;20085;-94
2020/12/12 14:55:48;;;;;;;63.55;22.02;;;;;;;;;;5084589;28;20132;-93
2020/12/12 14:58:16;;;;;;;69.65;23.80;;;;;;;;;;5085035;28;20056;-93
2020/12/12 15:00:49;;;;;;;75.03;25.10;;;;;;;;;;5084491;28;20074;-93
2020/12/12 15:03:52;;;;;;;61.70;22.48;;;;;;;;;;5083935;28;20072;-94
2020/12/12 15:06:28;;;;;;;66.30;22.58;;;;;;;;;;5084265;28;20102;-93